Time;durP1;ratioP1;P1;durP2;ratioP2;P2;SDS_P1;SDS_P2;PMS_P1;PMS_P2;Temp;Humidity;BMP_temperature;BMP_pressure;BME280_temperature;BME280_humidity;BME280_pressure;Samples;Min_cycle;Max_cycle;Signal;HPM_P1;HPM_P2
2023/09/25 00:01:43;;;;;;;4.78;4.32;;;13.10;99.90;;;;;;4973189;28;20216;-75
2023/09/25 00:04:10;;;;;;;4.20;3.58;;;13.10;99.90;;;;;;4971285;28;20728;-75
2023/09/25 00:06:37;;;;;;;6.20;4.60;;;13.10;99.90;;;;;;4966306;28;20586;-74
2023/09/25 00:09:05;;;;;;;4.00;3.55;;;13.10;99.90;;;;;;4970561;28;20212;-75
2023/09/25 00:11:32;;;;;;;7.35;3.92;;;13.10;99.90;;;;;;4969175;28;20207;-76
2023/09/25 00:14:00;;;;;;;4.82;4.20;;;13.10;99.90;;;;;;4969530;28;20210;-75
2023/09/25 00:16:27;;;;;;;5.28;4.50;;;13.10;99.90;;;;;;4969638;28;20320;-75
2023/09/25 00:18:54;;;;;;;3.97;3.65;;;13.00;99.90;;;;;;4965150;28;20320;-75
2023/09/25 00:21:21;;;;;;;4.60;4.20;;;13.00;99.90;;;;;;4970189;28;20210;-75
2023/09/25 00:23:48;;;;;;;5.57;4.20;;;13.00;99.90;;;;;;4971123;28;20208;-75
2023/09/25 00:26:15;;;;;;;4.15;3.80;;;13.00;99.90;;;;;;4973741;28;20260;-75
2023/09/25 00:28:43;;;;;;;5.20;3.95;;;13.00;99.90;;;;;;4974411;28;20212;-75
2023/09/25 00:31:11;;;;;;;5.95;4.22;;;13.00;99.90;;;;;;4967451;28;20261;-76
2023/09/25 00:33:37;;;;;;;6.35;4.13;;;13.00;99.90;;;;;;4971227;28;20205;-75
2023/09/25 00:36:05;;;;;;;4.15;3.60;;;12.90;99.90;;;;;;4971599;28;20228;-76
2023/09/25 00:38:32;;;;;;;4.25;3.85;;;12.90;99.90;;;;;;4965140;28;20263;-75
2023/09/25 00:40:59;;;;;;;4.60;3.70;;;12.90;99.90;;;;;;4968939;28;20232;-74
2023/09/25 00:43:26;;;;;;;5.00;3.90;;;12.90;99.90;;;;;;4961511;28;20210;-75
2023/09/25 00:45:53;;;;;;;6.40;4.05;;;12.90;99.90;;;;;;4965383;28;20691;-74
2023/09/25 00:48:26;;;;;;;3.95;3.60;;;12.90;99.90;;;;;;4975029;28;20236;-75
2023/09/25 00:50:54;;;;;;;4.40;4.00;;;12.90;99.90;;;;;;4974420;28;20264;-74
2023/09/25 00:53:21;;;;;;;6.25;4.50;;;12.90;99.90;;;;;;4967652;28;20214;-75
2023/09/25 00:55:49;;;;;;;4.47;3.78;;;12.90;99.90;;;;;;4974746;28;20244;-75
2023/09/25 00:58:16;;;;;;;4.55;4.15;;;12.90;99.90;;;;;;4969179;28;20225;-74
2023/09/25 01:00:43;;;;;;;4.03;3.72;;;12.90;99.90;;;;;;4973619;28;20206;-74
2023/09/25 01:03:11;;;;;;;6.40;4.20;;;12.90;99.90;;;;;;4969746;28;20236;-75
2023/09/25 01:05:40;;;;;;;5.38;4.88;;;12.80;99.90;;;;;;4969229;28;20652;-75
2023/09/25 01:08:10;;;;;;;5.63;4.60;;;12.80;99.90;;;;;;4971748;28;20212;-75
2023/09/25 01:10:37;;;;;;;7.57;4.68;;;12.80;99.90;;;;;;4969900;28;20213;-74
2023/09/25 01:13:05;;;;;;;4.45;4.05;;;12.80;99.90;;;;;;4973137;28;20621;-75
2023/09/25 01:15:32;;;;;;;4.72;4.28;;;12.70;99.90;;;;;;4970834;28;20296;-74
2023/09/25 01:17:59;;;;;;;4.78;4.30;;;12.70;99.90;;;;;;4968752;28;20224;-76
2023/09/25 01:20:26;;;;;;;4.85;4.32;;;12.70;99.90;;;;;;4971343;28;20270;-74
2023/09/25 01:22:54;;;;;;;6.97;5.72;;;12.70;99.90;;;;;;4974186;28;20237;-75
2023/09/25 01:25:23;;;;;;;4.80;4.40;;;12.70;99.90;;;;;;4973925;28;20288;-75
2023/09/25 01:27:49;;;;;;;5.53;4.47;;;12.70;99.90;;;;;;4969562;28;20710;-75
2023/09/25 01:30:18;;;;;;;7.30;4.25;;;12.60;99.90;;;;;;4974127;28;20205;-75
2023/09/25 01:32:46;;;;;;;8.77;5.32;;;12.60;99.90;;;;;;4970818;28;20205;-74
2023/09/25 01:35:15;;;;;;;4.97;4.53;;;12.60;99.90;;;;;;4974783;28;20216;-74
2023/09/25 01:37:42;;;;;;;5.13;4.63;;;12.60;99.90;;;;;;4972403;28;20589;-75
2023/09/25 01:40:15;;;;;;;6.55;4.65;;;12.60;99.90;;;;;;4969588;28;20219;-74
2023/09/25 01:42:44;;;;;;;6.00;5.50;;;12.50;99.90;;;;;;4965267;28;20554;-74
2023/09/25 01:45:13;;;;;;;7.70;6.53;;;12.50;99.90;;;;;;4962610;28;20584;-74
2023/09/25 01:47:42;;;;;;;5.13;4.72;;;12.50;99.90;;;;;;4968752;28;20228;-74
2023/09/25 01:50:11;;;;;;;5.20;4.70;;;12.50;99.90;;;;;;4966797;28;20311;-74
2023/09/25 01:52:38;;;;;;;5.25;4.50;;;12.40;99.90;;;;;;4968084;28;20205;-74
2023/09/25 01:55:05;;;;;;;5.25;4.75;;;12.40;99.90;;;;;;4964141;28;20292;-74
2023/09/25 01:57:35;;;;;;;6.13;5.47;;;12.40;99.90;;;;;;4972754;28;20312;-75
2023/09/25 02:00:07;;;;;;;4.93;4.30;;;12.40;99.90;;;;;;4969324;28;20210;-75
2023/09/25 02:02:35;;;;;;;4.57;4.18;;;12.40;99.90;;;;;;4971353;28;20203;-74
2023/09/25 02:05:02;;;;;;;5.10;4.63;;;12.40;99.90;;;;;;4969516;28;20694;-75
2023/09/25 02:07:29;;;;;;;5.60;4.88;;;12.50;99.90;;;;;;4967017;28;20674;-75
2023/09/25 02:09:56;;;;;;;5.70;5.10;;;12.50;99.90;;;;;;4971825;28;20730;-74
2023/09/25 02:12:23;;;;;;;5.20;4.70;;;12.50;99.90;;;;;;4967873;28;20570;-74
2023/09/25 02:14:54;;;;;;;10.38;4.82;;;12.40;99.90;;;;;;4965070;28;20295;-76
2023/09/25 02:17:21;;;;;;;5.60;4.60;;;12.40;99.90;;;;;;4968681;28;20707;-75
2023/09/25 02:19:48;;;;;;;6.25;5.28;;;12.40;99.90;;;;;;4972558;28;20228;-75
2023/09/25 02:22:15;;;;;;;4.55;4.15;;;12.40;99.90;;;;;;4973356;28;20694;-75
2023/09/25 02:24:42;;;;;;;4.85;4.45;;;12.40;99.90;;;;;;4966962;28;20292;-76
2023/09/25 02:27:10;;;;;;;5.15;4.25;;;12.40;99.90;;;;;;4971438;28;20225;-75
2023/09/25 02:29:37;;;;;;;7.80;4.82;;;12.50;99.90;;;;;;4969228;28;20233;-75
2023/09/25 02:32:05;;;;;;;4.63;4.22;;;12.40;99.90;;;;;;4967668;28;20295;-76
2023/09/25 02:34:32;;;;;;;4.70;4.30;;;12.40;99.90;;;;;;4967254;28;20204;-74
2023/09/25 02:36:59;;;;;;;4.50;4.03;;;12.40;99.90;;;;;;4970868;28;20234;-74
2023/09/25 02:39:25;;;;;;;5.03;4.38;;;12.40;99.90;;;;;;4970908;28;20310;-74
2023/09/25 02:41:52;;;;;;;13.07;4.57;;;12.30;99.90;;;;;;4969502;28;20207;-75
2023/09/25 02:44:20;;;;;;;4.50;4.20;;;12.40;99.90;;;;;;4971892;28;20215;-75
2023/09/25 02:46:47;;;;;;;4.47;4.07;;;12.40;99.90;;;;;;4973472;28;20586;-75
2023/09/25 02:49:15;;;;;;;6.22;4.40;;;12.40;99.90;;;;;;4972787;28;20219;-75
2023/09/25 02:51:42;;;;;;;5.97;4.75;;;12.40;99.90;;;;;;4970649;28;20209;-76
2023/09/25 02:54:09;;;;;;;4.30;4.00;;;12.40;99.90;;;;;;4965906;28;20208;-74
2023/09/25 02:56:35;;;;;;;5.50;4.13;;;12.40;99.90;;;;;;4969292;28;20232;-74
2023/09/25 02:59:03;;;;;;;4.78;4.32;;;12.40;99.90;;;;;;4969701;28;20212;-76
2023/09/25 03:01:30;;;;;;;6.70;4.60;;;12.40;99.90;;;;;;4969847;28;20208;-74
2023/09/25 03:03:56;;;;;;;4.85;4.10;;;12.40;99.90;;;;;;4967677;28;20673;-75
2023/09/25 03:06:25;;;;;;;4.18;3.83;;;12.30;99.90;;;;;;4966449;28;20235;-74
2023/09/25 03:08:52;;;;;;;5.10;4.32;;;12.30;99.90;;;;;;4973214;28;20201;-76
2023/09/25 03:11:19;;;;;;;5.13;4.45;;;12.30;99.90;;;;;;4965700;28;20682;-74
2023/09/25 03:13:45;;;;;;;4.88;4.47;;;12.30;99.90;;;;;;4972256;28;20566;-75
2023/09/25 03:16:16;;;;;;;4.00;3.65;;;12.30;99.90;;;;;;4975648;28;20231;-75
2023/09/25 03:18:43;;;;;;;5.60;5.00;;;12.40;99.90;;;;;;4968610;28;20324;-75
2023/09/25 03:21:12;;;;;;;3.90;3.60;;;12.40;99.90;;;;;;4969100;28;20551;-75
2023/09/25 03:23:40;;;;;;;5.10;4.00;;;12.40;99.90;;;;;;4969029;28;20734;-75
2023/09/25 03:26:14;;;;;;;4.18;3.80;;;12.40;99.90;;;;;;4972431;28;20264;-76
2023/09/25 03:28:41;;;;;;;5.65;4.35;;;12.40;99.90;;;;;;4965547;28;20676;-73
2023/09/25 03:31:08;;;;;;;5.40;3.40;;;12.40;99.90;;;;;;4973517;28;20629;-74
2023/09/25 03:33:35;;;;;;;7.63;4.18;;;12.40;99.90;;;;;;4965814;28;20308;-74
2023/09/25 03:36:02;;;;;;;5.38;4.88;;;12.40;99.90;;;;;;4962640;28;20222;-75
2023/09/25 03:38:29;;;;;;;4.60;4.13;;;12.40;99.90;;;;;;4967166;28;20307;-74
2023/09/25 03:40:57;;;;;;;4.70;4.07;;;12.50;99.90;;;;;;4964440;28;20208;-75
2023/09/25 03:43:24;;;;;;;3.90;3.50;;;12.50;99.90;;;;;;4974340;28;20744;-74
2023/09/25 03:45:51;;;;;;;4.10;3.80;;;12.40;99.90;;;;;;4976854;28;20324;-74
2023/09/25 03:48:18;;;;;;;4.32;3.70;;;12.50;99.90;;;;;;4971930;28;20212;-75
2023/09/25 03:50:44;;;;;;;4.65;4.22;;;12.50;99.90;;;;;;4976931;28;20217;-74
2023/09/25 03:53:12;;;;;;;3.53;3.22;;;12.40;99.90;;;;;;4966597;28;20657;-74
2023/09/25 03:55:39;;;;;;;4.97;3.42;;;12.50;99.90;;;;;;4975378;28;20219;-74
2023/09/25 03:58:07;;;;;;;4.03;3.65;;;12.30;99.90;;;;;;4975949;28;20747;-73
2023/09/25 04:00:34;;;;;;;6.93;4.47;;;12.40;99.90;;;;;;4976016;28;20209;-75
2023/09/25 04:03:01;;;;;;;4.53;4.13;;;12.40;99.90;;;;;;4971547;28;20257;-75
2023/09/25 04:05:28;;;;;;;4.28;3.50;;;12.40;99.90;;;;;;4973406;28;20207;-75
2023/09/25 04:07:55;;;;;;;4.25;3.72;;;12.30;99.90;;;;;;4972791;28;20312;-75
2023/09/25 04:10:22;;;;;;;4.13;3.70;;;12.40;99.90;;;;;;4972811;28;20300;-74
2023/09/25 04:12:49;;;;;;;3.70;3.40;;;12.30;99.90;;;;;;4967207;28;20649;-74
2023/09/25 04:15:18;;;;;;;4.80;4.15;;;12.30;99.90;;;;;;4969352;28;20671;-74
2023/09/25 04:17:45;;;;;;;4.07;3.72;;;12.30;99.90;;;;;;4966510;28;20634;-75
2023/09/25 04:20:17;;;;;;;4.07;3.60;;;12.30;99.90;;;;;;4968140;28;20316;-75
2023/09/25 04:22:44;;;;;;;4.28;3.92;;;12.40;99.90;;;;;;4973634;28;20208;-75
2023/09/25 04:25:18;;;;;;;4.63;3.47;;;12.40;99.90;;;;;;4972269;28;20292;-75
2023/09/25 04:27:46;;;;;;;3.95;3.55;;;12.30;99.90;;;;;;4971428;28;20576;-74
2023/09/25 04:30:15;;;;;;;4.68;4.18;;;12.30;99.90;;;;;;4973721;28;20213;-74
2023/09/25 04:32:46;;;;;;;4.13;3.67;;;12.30;99.90;;;;;;4975673;28;20202;-75
2023/09/25 04:35:13;;;;;;;4.15;3.75;;;12.30;99.90;;;;;;4968314;28;20258;-77
2023/09/25 04:37:41;;;;;;;4.18;3.88;;;12.30;99.90;;;;;;4971432;28;20670;-73
2023/09/25 04:40:14;;;;;;;4.70;4.32;;;12.30;99.90;;;;;;4975688;28;20216;-75
2023/09/25 04:42:41;;;;;;;6.05;4.30;;;12.20;99.90;;;;;;4967493;28;20640;-74
2023/09/25 04:45:13;;;;;;;4.65;3.90;;;12.20;99.90;;;;;;4971298;28;20201;-75
2023/09/25 04:47:41;;;;;;;4.97;3.97;;;12.30;99.90;;;;;;4969717;28;20584;-76
2023/09/25 04:50:10;;;;;;;4.75;3.75;;;12.20;99.90;;;;;;4974864;28;20254;-77
2023/09/25 04:52:38;;;;;;;6.78;5.15;;;12.30;99.90;;;;;;4969528;28;20199;-75
2023/09/25 04:55:06;;;;;;;5.35;4.55;;;12.20;99.90;;;;;;4965934;28;20208;-76
2023/09/25 04:57:33;;;;;;;9.27;5.18;;;12.20;99.90;;;;;;4971910;28;20235;-76
2023/09/25 05:00:05;;;;;;;4.47;3.70;;;12.20;99.90;;;;;;4971195;28;20685;-77
2023/09/25 05:02:33;;;;;;;5.13;4.63;;;12.20;99.90;;;;;;4967609;28;20202;-75
2023/09/25 05:04:59;;;;;;;6.93;4.90;;;12.20;99.90;;;;;;4969458;28;20593;-76
2023/09/25 05:07:27;;;;;;;4.32;3.85;;;12.20;99.90;;;;;;4973925;28;20334;-77
2023/09/25 05:09:54;;;;;;;7.03;4.10;;;12.20;99.90;;;;;;4970326;28;20247;-77
2023/09/25 05:12:21;;;;;;;5.40;4.50;;;12.20;99.90;;;;;;4968974;28;20566;-77
2023/09/25 05:14:48;;;;;;;4.78;4.22;;;12.20;99.90;;;;;;4965652;28;20211;-76
2023/09/25 05:17:14;;;;;;;4.82;4.32;;;12.20;99.90;;;;;;4960837;28;20320;-76
2023/09/25 05:19:41;;;;;;;8.93;4.55;;;12.30;99.90;;;;;;4975826;28;20305;-76
2023/09/25 05:22:09;;;;;;;4.15;3.75;;;12.20;99.90;;;;;;4968217;28;20209;-77
2023/09/25 05:24:37;;;;;;;4.35;3.95;;;12.30;99.90;;;;;;4970573;28;20561;-78
2023/09/25 05:27:05;;;;;;;4.45;3.63;;;12.30;99.90;;;;;;4964888;28;20227;-77
2023/09/25 05:29:32;;;;;;;4.72;4.15;;;12.30;99.90;;;;;;4967066;28;20196;-78
2023/09/25 05:32:00;;;;;;;5.40;4.90;;;12.30;99.90;;;;;;4972477;28;20564;-77
2023/09/25 05:34:27;;;;;;;4.43;4.03;;;12.30;99.90;;;;;;4973949;28;20204;-76
2023/09/25 05:36:54;;;;;;;7.28;4.00;;;12.30;99.90;;;;;;4971359;28;20228;-75
2023/09/25 05:39:24;;;;;;;4.65;4.25;;;12.40;99.90;;;;;;4968177;28;20301;-77
2023/09/25 05:41:52;;;;;;;4.30;3.90;;;12.40;99.90;;;;;;4972228;28;20281;-77
2023/09/25 05:44:19;;;;;;;4.97;3.65;;;12.40;99.90;;;;;;4974655;28;20208;-78
2023/09/25 05:46:46;;;;;;;5.18;4.70;;;12.50;99.90;;;;;;4970479;28;20339;-75
2023/09/25 05:49:13;;;;;;;5.60;5.03;;;12.50;99.90;;;;;;4967794;28;20225;-77
2023/09/25 05:51:40;;;;;;;4.18;3.72;;;12.60;99.90;;;;;;4961911;28;20293;-77
2023/09/25 05:54:07;;;;;;;3.92;3.50;;;12.60;99.90;;;;;;4969756;28;20634;-78
2023/09/25 05:56:34;;;;;;;4.40;3.97;;;12.80;99.90;;;;;;4969975;28;20229;-76
2023/09/25 05:59:03;;;;;;;3.97;3.67;;;12.80;99.90;;;;;;4968789;28;20226;-78
2023/09/25 06:01:30;;;;;;;5.13;4.63;;;12.90;99.90;;;;;;4974284;28;20210;-77
2023/09/25 06:03:57;;;;;;;4.97;4.35;;;13.00;99.90;;;;;;4975027;28;20213;-78
2023/09/25 06:06:24;;;;;;;4.88;4.35;;;13.10;99.90;;;;;;4967059;28;20285;-78
2023/09/25 06:08:52;;;;;;;3.75;3.45;;;13.10;99.90;;;;;;4966471;28;20197;-77
2023/09/25 06:11:19;;;;;;;4.70;4.30;;;13.10;99.90;;;;;;4968246;28;20210;-77
2023/09/25 06:13:46;;;;;;;4.35;3.95;;;13.10;99.90;;;;;;4972601;28;20288;-77
2023/09/25 06:16:16;;;;;;;3.90;3.60;;;13.20;99.90;;;;;;4970992;28;20228;-77
2023/09/25 06:18:43;;;;;;;8.32;7.22;;;13.20;99.90;;;;;;4969424;28;20198;-77
2023/09/25 06:21:13;;;;;;;4.22;3.83;;;13.20;99.90;;;;;;4963827;28;20415;-78
2023/09/25 06:23:40;;;;;;;4.18;3.38;;;13.30;99.90;;;;;;4976280;28;20615;-76
2023/09/25 06:26:07;;;;;;;4.10;3.75;;;13.40;99.90;;;;;;4973284;28;20225;-76
2023/09/25 06:28:34;;;;;;;4.38;3.97;;;13.60;99.90;;;;;;4969423;28;20210;-78
2023/09/25 06:31:01;;;;;;;3.13;2.80;;;13.70;99.90;;;;;;4973676;28;20282;-78
2023/09/25 06:33:29;;;;;;;4.53;3.85;;;13.90;99.90;;;;;;4972025;28;20220;-77
2023/09/25 06:35:56;;;;;;;4.32;3.97;;;14.00;99.90;;;;;;4965244;28;20257;-75
2023/09/25 06:38:24;;;;;;;3.28;2.97;;;14.20;99.90;;;;;;4967802;28;20683;-76
2023/09/25 06:40:51;;;;;;;5.38;4.53;;;14.40;99.90;;;;;;4970294;28;20613;-76
2023/09/25 06:43:18;;;;;;;5.10;3.72;;;14.60;99.90;;;;;;4960359;28;20730;-75
2023/09/25 06:45:45;;;;;;;4.03;2.70;;;15.10;99.90;;;;;;4971397;28;20294;-77
2023/09/25 06:48:12;;;;;;;4.23;3.23;;;15.50;99.90;;;;;;4972980;28;20216;-75
2023/09/25 06:50:40;;;;;;;3.43;2.93;;;16.30;99.90;;;;;;4973023;28;20548;-73
2023/09/25 06:53:07;;;;;;;4.93;2.93;;;17.00;99.90;;;;;;4965530;28;21029;-76
2023/09/25 06:55:34;;;;;;;6.87;3.63;;;17.40;99.90;;;;;;4967681;28;20440;-76
2023/09/25 06:58:01;;;;;;;3.43;2.77;;;17.70;99.90;;;;;;4975904;28;20949;-75
2023/09/25 07:00:28;;;;;;;3.30;2.63;;;17.90;99.90;;;;;;4974738;28;20535;-78
2023/09/25 07:02:55;;;;;;;3.13;2.27;;;17.60;99.90;;;;;;4971052;28;20521;-76
2023/09/25 07:05:22;;;;;;;4.90;2.70;;;18.00;99.90;;;;;;4975517;28;20861;-75
2023/09/25 07:07:51;;;;;;;4.83;2.50;;;18.20;99.90;;;;;;4972231;28;20493;-73
2023/09/25 07:10:18;;;;;;;4.77;2.90;;;18.70;99.90;;;;;;4974454;28;20557;-74
2023/09/25 07:12:45;;;;;;;5.60;3.20;;;19.20;99.90;;;;;;4973671;28;20536;-75
2023/09/25 07:15:12;;;;;;;4.10;3.10;;;19.50;99.90;;;;;;4966727;28;20468;-76
2023/09/25 07:17:40;;;;;;;3.30;3.00;;;19.60;99.90;;;;;;4967921;28;20543;-75
2023/09/25 07:20:08;;;;;;;6.43;3.17;;;19.90;99.90;;;;;;4972392;28;20854;-75
2023/09/25 07:22:35;;;;;;;5.53;2.47;;;20.40;99.90;;;;;;4965217;28;20533;-75
2023/09/25 07:25:04;;;;;;;4.97;3.27;;;20.60;99.90;;;;;;4973199;28;20456;-74
2023/09/25 07:27:33;;;;;;;5.13;3.00;;;20.70;98.30;;;;;;4968324;28;20468;-76
2023/09/25 07:30:01;;;;;;;5.47;2.53;;;20.60;98.50;;;;;;4971789;28;20441;-75
2023/09/25 07:32:28;;;;;;;4.80;3.80;;;20.90;97.70;;;;;;4972379;28;20452;-77
2023/09/25 07:34:57;;;;;;;4.70;2.80;;;21.20;97.60;;;;;;4972326;28;20449;-75
2023/09/25 07:37:24;;;;;;;3.33;2.93;;;21.40;96.90;;;;;;4967379;28;20465;-75
2023/09/25 07:39:50;;;;;;;4.80;2.73;;;21.60;95.60;;;;;;4972608;28;20470;-76
2023/09/25 07:42:20;;;;;;;3.13;2.50;;;22.00;95.30;;;;;;4970537;28;20919;-77
2023/09/25 07:44:48;;;;;;;3.30;2.77;;;22.60;94.20;;;;;;4964311;28;21011;-73
2023/09/25 07:47:17;;;;;;;5.27;2.77;;;22.40;93.30;;;;;;4972433;28;20469;-78
2023/09/25 07:49:45;;;;;;;2.90;2.60;;;22.40;93.20;;;;;;4968953;28;20782;-78
2023/09/25 07:52:16;;;;;;;3.10;2.73;;;22.60;92.90;;;;;;4966102;28;20453;-77
2023/09/25 07:54:45;;;;;;;4.20;2.50;;;22.50;92.90;;;;;;4967512;28;20454;-77
2023/09/25 07:57:14;;;;;;;4.93;2.80;;;22.60;93.10;;;;;;4968243;28;20481;-77
2023/09/25 07:59:42;;;;;;;6.70;3.00;;;22.60;92.50;;;;;;4970057;28;20481;-78
2023/09/25 08:02:11;;;;;;;4.73;2.50;;;23.30;92.20;;;;;;4976140;28;20525;-78
2023/09/25 08:04:39;;;;;;;5.83;2.63;;;23.50;91.60;;;;;;4973065;28;20474;-77
2023/09/25 08:07:06;;;;;;;3.50;2.47;;;23.60;91.10;;;;;;4970538;28;20968;-78
2023/09/25 08:09:32;;;;;;;2.60;2.07;;;24.00;91.10;;;;;;4974741;28;20467;-78
2023/09/25 08:11:59;;;;;;;4.67;2.90;;;24.60;90.30;;;;;;4975405;28;20536;-78
2023/09/25 08:14:26;;;;;;;6.90;4.77;;;24.50;89.20;;;;;;4973626;28;21094;-76
2023/09/25 08:16:55;;;;;;;8.77;5.37;;;24.00;89.50;;;;;;4971822;28;20551;-79
2023/09/25 08:19:23;;;;;;;4.97;3.60;;;23.80;90.30;;;;;;4967555;28;20450;-78
2023/09/25 08:21:51;;;;;;;3.83;2.93;;;23.60;91.10;;;;;;4971569;28;20504;-77
2023/09/25 08:24:18;;;;;;;6.30;3.60;;;23.80;90.70;;;;;;4962168;28;20481;-78
2023/09/25 08:26:46;;;;;;;12.93;7.53;;;23.80;90.80;;;;;;4966857;28;20538;-77
2023/09/25 08:29:13;;;;;;;3.20;2.33;;;23.90;90.80;;;;;;4975416;28;20906;-76
2023/09/25 08:31:44;;;;;;;5.40;2.60;;;24.00;90.80;;;;;;4968047;28;20521;-77
2023/09/25 08:34:12;;;;;;;4.10;2.23;;;24.20;90.10;;;;;;4970999;28;20453;-76
2023/09/25 08:36:39;;;;;;;2.90;2.40;;;24.20;90.40;;;;;;4967813;28;20478;-76
2023/09/25 08:39:10;;;;;;;3.30;2.23;;;24.10;90.20;;;;;;4973233;28;20450;-77
2023/09/25 08:41:40;;;;;;;5.37;2.80;;;23.90;90.40;;;;;;4969041;28;20478;-77
2023/09/25 08:44:08;;;;;;;2.90;2.20;;;23.60;90.40;;;;;;4968516;28;20905;-76
2023/09/25 08:46:35;;;;;;;4.23;2.30;;;23.30;91.10;;;;;;4968930;28;21015;-77
2023/09/25 08:49:04;;;;;;;3.20;2.83;;;23.40;91.40;;;;;;4963149;28;20491;-77
2023/09/25 08:51:35;;;;;;;4.17;2.63;;;23.20;91.70;;;;;;4973097;28;20453;-77
2023/09/25 08:54:03;;;;;;;3.20;2.67;;;23.50;91.30;;;;;;4974336;28;20449;-78
2023/09/25 08:56:32;;;;;;;4.00;2.10;;;23.50;91.00;;;;;;4975473;28;21218;-77
2023/09/25 08:59:01;;;;;;;4.67;2.57;;;23.90;91.00;;;;;;4975610;28;20511;-77
2023/09/25 09:01:29;;;;;;;5.40;3.00;;;23.80;90.60;;;;;;4964905;28;20488;-76
2023/09/25 09:03:58;;;;;;;3.30;2.40;;;23.80;90.50;;;;;;4970895;28;20451;-78
2023/09/25 09:06:25;;;;;;;4.43;2.57;;;23.90;90.50;;;;;;4975047;28;20491;-79
2023/09/25 09:08:53;;;;;;;4.03;2.20;;;23.60;90.90;;;;;;4971922;28;20532;-76
2023/09/25 09:11:22;;;;;;;6.43;2.17;;;23.70;90.90;;;;;;4968173;28;20457;-77
2023/09/25 09:13:50;;;;;;;3.70;2.50;;;24.30;90.90;;;;;;4969428;28;20453;-80
2023/09/25 09:16:19;;;;;;;2.20;1.77;;;24.40;90.70;;;;;;4963516;28;20467;-78
2023/09/25 09:18:49;;;;;;;2.50;2.10;;;25.30;90.30;;;;;;4971096;28;20450;-77
2023/09/25 09:21:24;;;;;;;4.07;2.80;;;25.80;89.00;;;;;;4972877;28;20995;-76
2023/09/25 09:23:55;;;;;;;3.30;2.23;;;26.20;86.60;;;;;;4976234;28;20468;-78
2023/09/25 09:26:23;;;;;;;2.93;2.03;;;25.60;85.40;;;;;;4968625;28;20533;-77
2023/09/25 09:28:53;;;;;;;2.03;1.70;;;25.30;87.00;;;;;;4968572;28;20815;-79
2023/09/25 09:31:21;;;;;;;4.83;2.10;;;25.30;87.20;;;;;;4960244;28;20442;-78
2023/09/25 09:33:48;;;;;;;2.50;1.67;;;25.40;88.50;;;;;;4971432;28;20474;-76
2023/09/25 09:36:19;;;;;;;3.40;1.80;;;25.50;87.90;;;;;;4962997;28;20509;-77
2023/09/25 09:38:47;;;;;;;7.10;2.20;;;25.40;86.10;;;;;;4963984;28;20894;-77
2023/09/25 09:41:17;;;;;;;3.63;2.30;;;25.20;85.40;;;;;;4971152;28;20583;-78
2023/09/25 09:43:45;;;;;;;2.30;1.80;;;24.60;86.10;;;;;;4969261;28;20795;-75
2023/09/25 09:46:14;;;;;;;2.37;1.60;;;25.20;85.90;;;;;;4977281;28;20564;-78
2023/09/25 09:48:44;;;;;;;3.97;2.20;;;25.40;85.80;;;;;;4970267;28;20454;-77
2023/09/25 09:51:14;;;;;;;3.50;1.93;;;25.10;85.70;;;;;;4973697;28;20457;-76
2023/09/25 09:53:41;;;;;;;2.33;1.57;;;25.20;86.50;;;;;;4968840;28;20549;-77
2023/09/25 09:56:08;;;;;;;4.03;1.60;;;25.50;84.80;;;;;;4965692;28;20500;-76
2023/09/25 09:58:38;;;;;;;2.60;1.90;;;25.70;84.50;;;;;;4974308;28;20445;-76
2023/09/25 10:01:06;;;;;;;4.93;2.03;;;25.50;83.90;;;;;;4961810;28;20504;-76
2023/09/25 10:03:34;;;;;;;2.67;1.90;;;25.10;85.00;;;;;;4971852;28;20866;-76
2023/09/25 10:06:01;;;;;;;3.93;1.97;;;25.40;85.70;;;;;;4971140;28;20500;-76
2023/09/25 10:08:29;;;;;;;3.93;2.20;;;25.60;84.60;;;;;;4969806;28;20882;-76
2023/09/25 10:11:20;;;;;;;4.30;1.90;;;25.30;85.20;;;;;;4967822;28;20529;-77
2023/09/25 10:13:48;;;;;;;3.50;2.33;;;24.90;85.10;;;;;;4966086;28;20481;-76
2023/09/25 10:16:16;;;;;;;2.60;1.80;;;24.60;86.80;;;;;;4967604;28;20474;-75
2023/09/25 10:18:43;;;;;;;2.13;1.90;;;24.70;87.10;;;;;;4960540;28;20446;-77
2023/09/25 10:21:14;;;;;;;3.40;1.40;;;24.40;87.70;;;;;;4970553;28;20525;-76
2023/09/25 10:23:46;;;;;;;3.07;1.87;;;24.70;87.50;;;;;;4969985;28;20438;-77
2023/09/25 10:26:18;;;;;;;2.10;1.90;;;24.90;86.50;;;;;;4969563;28;20554;-77
2023/09/25 10:28:45;;;;;;;2.90;1.80;;;24.80;85.80;;;;;;4973261;28;20527;-76
2023/09/25 10:31:25;;;;;;;3.70;1.93;;;25.10;85.00;;;;;;4962335;28;20796;-77
2023/09/25 10:33:57;;;;;;;2.83;2.20;;;24.60;85.60;;;;;;4970791;28;20449;-77
2023/09/25 10:36:37;;;;;;;3.23;2.23;;;23.80;84.20;;;;;;4965173;28;20486;-76
2023/09/25 10:39:06;;;;;;;2.80;1.53;;;23.80;85.80;;;;;;4968266;28;20442;-75
2023/09/25 10:41:33;;;;;;;2.63;1.60;;;24.00;86.30;;;;;;4972043;28;20500;-76
2023/09/25 10:44:01;;;;;;;3.00;2.17;;;23.70;84.90;;;;;;4965014;28;20536;-78
2023/09/25 10:46:30;;;;;;;2.37;1.60;;;23.50;86.40;;;;;;4964553;28;20505;-77
2023/09/25 10:48:57;;;;;;;2.87;1.87;;;23.60;85.70;;;;;;4972054;28;20449;-76
2023/09/25 10:51:24;;;;;;;4.73;2.10;;;23.50;85.00;;;;;;4972154;28;20477;-76
2023/09/25 10:53:51;;;;;;;3.73;1.93;;;23.50;85.50;;;;;;4971714;28;20445;-77
2023/09/25 10:56:18;;;;;;;3.13;1.97;;;23.80;85.50;;;;;;4966983;28;20517;-76
2023/09/25 10:58:47;;;;;;;2.60;1.60;;;23.80;84.90;;;;;;4967265;28;20457;-77
2023/09/25 11:01:15;;;;;;;3.90;1.73;;;23.70;84.70;;;;;;4972424;28;20478;-79
2023/09/25 11:03:43;;;;;;;4.83;1.83;;;23.40;84.80;;;;;;4968660;28;20921;-76
2023/09/25 11:06:10;;;;;;;2.37;2.00;;;23.10;85.80;;;;;;4971662;28;20813;-76
2023/09/25 11:08:37;;;;;;;2.87;1.87;;;22.80;86.50;;;;;;4969323;28;20905;-75
2023/09/25 11:11:04;;;;;;;2.43;2.00;;;22.90;86.80;;;;;;4968020;28;20796;-77
2023/09/25 11:13:31;;;;;;;4.30;2.20;;;22.90;86.20;;;;;;4972359;28;20459;-76
2023/09/25 11:16:00;;;;;;;3.80;2.27;;;22.90;86.80;;;;;;4968369;28;20466;-76
2023/09/25 11:18:27;;;;;;;1.97;1.40;;;23.00;86.90;;;;;;4972687;28;20497;-76
2023/09/25 11:20:57;;;;;;;2.50;2.00;;;22.80;87.40;;;;;;4969284;28;20487;-75
2023/09/25 11:23:25;;;;;;;4.83;2.27;;;22.80;86.70;;;;;;4967996;28;20513;-75
2023/09/25 11:25:52;;;;;;;3.10;1.87;;;22.90;86.80;;;;;;4970697;28;20466;-76
2023/09/25 11:28:21;;;;;;;3.43;1.73;;;22.80;87.10;;;;;;4970070;28;20883;-75
2023/09/25 11:30:48;;;;;;;3.57;1.67;;;23.00;86.70;;;;;;4970258;28;20441;-77
2023/09/25 11:33:18;;;;;;;2.97;1.73;;;23.10;86.50;;;;;;4976550;28;20537;-76
2023/09/25 11:35:46;;;;;;;1.67;1.57;;;23.20;86.60;;;;;;4974034;28;20450;-77
2023/09/25 11:38:19;;;;;;;3.70;2.50;;;23.10;86.70;;;;;;4972221;28;20536;-75
2023/09/25 11:40:46;;;;;;;3.00;2.20;;;23.30;87.10;;;;;;4971028;28;20942;-76
2023/09/25 11:43:14;;;;;;;1.87;1.60;;;23.50;86.40;;;;;;4968548;28;20454;-76
2023/09/25 11:45:42;;;;;;;2.80;1.97;;;23.70;86.50;;;;;;4972941;28;20444;-76
2023/09/25 11:48:10;;;;;;;3.40;2.07;;;23.60;85.70;;;;;;4971081;28;20446;-76
2023/09/25 11:50:37;;;;;;;6.00;1.90;;;23.40;86.10;;;;;;4967772;28;20544;-75
2023/09/25 11:53:06;;;;;;;5.50;2.40;;;23.30;86.40;;;;;;4969714;28;20466;-75
2023/09/25 11:55:34;;;;;;;3.60;2.13;;;23.10;86.80;;;;;;4967667;28;20450;-76
2023/09/25 11:58:05;;;;;;;2.40;1.93;;;23.10;86.60;;;;;;4974528;28;20450;-75
2023/09/25 12:00:32;;;;;;;4.87;2.03;;;22.70;87.00;;;;;;4969920;28;20450;-77
2023/09/25 12:02:59;;;;;;;2.37;1.90;;;22.60;87.10;;;;;;4973450;28;20491;-76
2023/09/25 12:05:26;;;;;;;2.47;2.13;;;22.50;87.80;;;;;;4973294;28;20456;-76
2023/09/25 12:07:53;;;;;;;2.70;2.10;;;22.50;87.80;;;;;;4962662;28;20466;-76
2023/09/25 12:10:20;;;;;;;3.30;2.60;;;22.50;88.70;;;;;;4968651;28;20458;-76
2023/09/25 12:12:49;;;;;;;5.13;1.63;;;22.60;88.90;;;;;;4971300;28;20464;-76
2023/09/25 12:15:17;;;;;;;2.60;1.73;;;22.70;88.70;;;;;;4970261;28;20449;-76
2023/09/25 12:17:45;;;;;;;2.53;2.10;;;22.70;88.70;;;;;;4974264;28;20548;-78
2023/09/25 12:20:14;;;;;;;2.10;1.90;;;22.60;88.30;;;;;;4972576;28;20856;-76
2023/09/25 12:22:41;;;;;;;3.13;1.90;;;22.50;88.50;;;;;;4969182;28;20495;-77
2023/09/25 12:25:11;;;;;;;2.10;1.90;;;22.50;88.60;;;;;;4965655;28;20542;-76
2023/09/25 12:27:40;;;;;;;2.13;1.93;;;22.40;88.80;;;;;;4970023;28;21048;-77
2023/09/25 12:30:10;;;;;;;3.30;1.73;;;22.20;89.00;;;;;;4967367;28;20532;-76
2023/09/25 12:32:38;;;;;;;3.07;2.40;;;22.10;89.30;;;;;;4974871;28;20449;-76
2023/09/25 12:35:06;;;;;;;4.47;1.60;;;21.80;90.00;;;;;;4969019;28;20443;-76
2023/09/25 12:37:33;;;;;;;2.23;2.00;;;21.80;90.00;;;;;;4970611;28;20900;-76
2023/09/25 12:40:00;;;;;;;2.70;1.30;;;22.00;90.20;;;;;;4967218;28;20470;-74
2023/09/25 12:42:28;;;;;;;4.10;1.80;;;22.20;89.90;;;;;;4966486;28;20496;-75
2023/09/25 12:44:55;;;;;;;2.80;2.10;;;22.30;90.20;;;;;;4975044;28;20475;-75
2023/09/25 12:47:26;;;;;;;2.80;1.90;;;22.50;90.00;;;;;;4975775;28;20549;-75
2023/09/25 12:49:54;;;;;;;4.70;2.37;;;22.50;89.10;;;;;;4977134;28;20458;-74